Duluth, Minnesota
Current Conditions -  °F | °C
As of 4:03 PM on Monday 22 Dec 2014 (Local Time) from KDLH Reporting Station
Moderate Fog Moderate Fog  
Wind Chill: 25°   Ceiling: 200
Heat Index: 34°   Visibility: 0.5mi
Dew Point: 32°   Wind: 13mph
Humidity: 92%   Direction: 110°ESE
Pressure: 29.67"   Gusts: NA
Location:  46.79°N, 92.09°W
Report Text: KDLH 222203Z 11011KT 1/2SM R09/4000V5500FT FG OVC002 01/00 A2967 RMK AO2 T00110000
Loading
Personal Weather Stations






























Interactive Weather Map New forecast layout! Learn more

10-Day Weather Forecast

Advertisements
Track Severe Weather on mobile